Time;durP1;ratioP1;P1;durP2;ratioP2;P2;SDS_P1;SDS_P2;PMS_P1;PMS_P2;Temp;Humidity;BMP_temperature;BMP_pressure;BME280_temperature;BME280_humidity;BME280_pressure;Samples;Min_cycle;Max_cycle;Signal;HPM_P1;HPM_P2
2022/03/08 00:01:32;;;;;;;0.00;0.00;;;;;;;;;;4986993;28;21164;-79
2022/03/08 00:04:00;;;;;;;0.20;0.20;;;;;;;;;;4998736;28;20032;-79
2022/03/08 00:06:28;;;;;;;0.13;0.13;;;;;;;;;;4992178;28;20030;-81
2022/03/08 00:08:54;;;;;;;0.00;0.00;;;;;;;;;;5001316;28;20117;-80
2022/03/08 00:11:21;;;;;;;0.00;0.00;;;;;;;;;;4982720;28;20105;-79
2022/03/08 00:13:50;;;;;;;0.52;0.52;;;;;;;;;;4996814;28;20026;-80
2022/03/08 00:16:16;;;;;;;0.22;0.22;;;;;;;;;;4986523;28;20038;-80
2022/03/08 00:18:44;;;;;;;0.00;0.00;;;;;;;;;;4997170;28;20169;-80
2022/03/08 00:21:11;;;;;;;0.00;0.00;;;;;;;;;;5000498;28;20038;-79
2022/03/08 00:23:39;;;;;;;26.58;1.05;;;;;;;;;;4996523;28;20436;-80
2022/03/08 00:26:05;;;;;;;0.00;0.00;;;;;;;;;;4996682;28;20022;-80
2022/03/08 00:28:36;;;;;;;0.20;0.20;;;;;;;;;;5001871;28;20058;-80
2022/03/08 00:31:03;;;;;;;0.40;0.40;;;;;;;;;;5002176;28;20056;-80
2022/03/08 00:33:31;;;;;;;0.15;0.15;;;;;;;;;;5001217;28;20024;-81
2022/03/08 00:35:57;;;;;;;0.00;0.00;;;;;;;;;;5002440;28;20029;-80
2022/03/08 00:38:22;;;;;;;0.25;0.25;;;;;;;;;;4995010;28;20023;-80
2022/03/08 00:40:48;;;;;;;1.17;1.08;;;;;;;;;;4995740;28;20101;-81
2022/03/08 00:43:15;;;;;;;0.17;0.17;;;;;;;;;;5005884;28;20069;-77
2022/03/08 00:45:49;;;;;;;0.30;0.30;;;;;;;;;;4996959;28;20403;-77
2022/03/08 00:48:15;;;;;;;0.00;0.00;;;;;;;;;;4997777;28;20057;-77
2022/03/08 00:50:40;;;;;;;0.10;0.10;;;;;;;;;;5000206;28;20475;-77
2022/03/08 00:53:05;;;;;;;1.33;1.23;;;;;;;;;;4999375;28;20017;-76
2022/03/08 00:55:35;;;;;;;0.00;0.00;;;;;;;;;;5003891;28;20037;-77
2022/03/08 00:58:01;;;;;;;0.22;0.22;;;;;;;;;;4987684;28;20433;-76
2022/03/08 01:00:29;;;;;;;0.35;0.20;;;;;;;;;;4994159;28;20486;-76
2022/03/08 01:02:56;;;;;;;0.00;0.00;;;;;;;;;;4989005;28;20045;-78
2022/03/08 01:05:22;;;;;;;0.73;0.30;;;;;;;;;;4976051;28;20461;-78
2022/03/08 01:07:48;;;;;;;0.17;0.17;;;;;;;;;;5000054;28;20033;-79
2022/03/08 01:10:18;;;;;;;0.13;0.13;;;;;;;;;;4987021;28;20117;-79
2022/03/08 01:12:44;;;;;;;0.32;0.32;;;;;;;;;;4982715;28;20030;-78
2022/03/08 01:15:11;;;;;;;1.48;1.33;;;;;;;;;;4989045;28;20026;-78
2022/03/08 01:17:38;;;;;;;0.10;0.10;;;;;;;;;;4985903;28;20052;-78
2022/03/08 01:20:05;;;;;;;0.15;0.15;;;;;;;;;;4993382;28;20030;-78
2022/03/08 01:22:31;;;;;;;0.20;0.20;;;;;;;;;;4988685;28;20030;-78
2022/03/08 01:24:58;;;;;;;0.15;0.15;;;;;;;;;;4981659;28;20081;-77
2022/03/08 01:27:24;;;;;;;0.43;0.35;;;;;;;;;;4985317;28;20045;-77
2022/03/08 01:29:49;;;;;;;0.30;0.30;;;;;;;;;;4988470;28;20360;-77
2022/03/08 01:32:17;;;;;;;0.00;0.00;;;;;;;;;;4983836;28;20538;-78
2022/03/08 01:34:44;;;;;;;0.10;0.10;;;;;;;;;;4978513;28;20106;-79
2022/03/08 01:37:11;;;;;;;0.25;0.25;;;;;;;;;;4980127;28;20030;-78
2022/03/08 01:39:36;;;;;;;0.03;0.03;;;;;;;;;;4978794;28;20041;-78
2022/03/08 01:42:16;;;;;;;0.25;0.25;;;;;;;;;;4985997;28;20030;-78
2022/03/08 01:44:43;;;;;;;0.40;0.40;;;;;;;;;;4990011;28;20034;-78
2022/03/08 01:47:12;;;;;;;0.28;0.28;;;;;;;;;;4984401;28;20442;-79
2022/03/08 01:49:38;;;;;;;0.00;0.00;;;;;;;;;;4987789;28;20066;-78
2022/03/08 01:52:06;;;;;;;0.00;0.00;;;;;;;;;;4988162;28;20070;-77
2022/03/08 01:54:34;;;;;;;0.20;0.20;;;;;;;;;;4980042;28;20053;-76
2022/03/08 01:56:59;;;;;;;0.20;0.20;;;;;;;;;;4987252;28;20025;-78
2022/03/08 01:59:25;;;;;;;0.40;0.40;;;;;;;;;;4980524;28;20038;-78
2022/03/08 02:01:50;;;;;;;0.00;0.00;;;;;;;;;;4981675;28;20035;-78
2022/03/08 02:04:15;;;;;;;0.00;0.00;;;;;;;;;;4980917;28;20168;-78
2022/03/08 02:06:44;;;;;;;0.40;0.40;;;;;;;;;;4983629;28;20075;-77
2022/03/08 02:09:09;;;;;;;0.00;0.00;;;;;;;;;;4976598;28;20029;-77
2022/03/08 02:11:35;;;;;;;0.10;0.10;;;;;;;;;;4974390;28;20362;-78
2022/03/08 02:14:01;;;;;;;0.00;0.00;;;;;;;;;;4974310;28;20522;-77
2022/03/08 02:16:28;;;;;;;2.38;0.20;;;;;;;;;;4977478;28;20457;-77
2022/03/08 02:18:54;;;;;;;0.28;0.28;;;;;;;;;;4980809;28;20038;-77
2022/03/08 02:21:19;;;;;;;0.85;0.73;;;;;;;;;;4971441;28;20034;-78
2022/03/08 02:23:44;;;;;;;0.70;0.57;;;;;;;;;;4982937;28;20030;-77
2022/03/08 02:26:10;;;;;;;0.10;0.10;;;;;;;;;;4981755;28;20030;-77
2022/03/08 02:28:35;;;;;;;0.20;0.20;;;;;;;;;;4977047;28;20449;-77
2022/03/08 02:31:01;;;;;;;0.52;0.52;;;;;;;;;;4990487;28;20023;-76
2022/03/08 02:33:26;;;;;;;0.20;0.20;;;;;;;;;;4983934;28;20053;-79
2022/03/08 02:35:52;;;;;;;2.10;1.13;;;;;;;;;;4984906;28;20022;-77
2022/03/08 02:38:20;;;;;;;0.77;0.77;;;;;;;;;;4973909;28;20031;-77
2022/03/08 02:40:45;;;;;;;0.20;0.20;;;;;;;;;;4975666;28;20053;-77
2022/03/08 02:43:11;;;;;;;0.43;0.43;;;;;;;;;;4978300;28;20050;-77
2022/03/08 02:45:39;;;;;;;0.10;0.10;;;;;;;;;;4973917;28;20038;-77
2022/03/08 02:48:05;;;;;;;1.10;1.00;;;;;;;;;;4974706;28;20057;-77
2022/03/08 02:50:34;;;;;;;0.00;0.00;;;;;;;;;;4976433;28;20470;-78
2022/03/08 02:52:59;;;;;;;0.13;0.13;;;;;;;;;;4978874;28;20031;-76
2022/03/08 02:55:27;;;;;;;0.03;0.03;;;;;;;;;;4973985;28;20038;-76
2022/03/08 02:57:54;;;;;;;0.10;0.10;;;;;;;;;;4982688;28;20019;-77
2022/03/08 03:00:21;;;;;;;0.50;0.50;;;;;;;;;;4992396;28;20041;-77
2022/03/08 03:02:46;;;;;;;0.25;0.25;;;;;;;;;;4978313;28;20165;-78
2022/03/08 03:05:12;;;;;;;0.43;0.43;;;;;;;;;;4974317;28;20118;-78
2022/03/08 03:07:39;;;;;;;1.15;0.57;;;;;;;;;;4978143;28;20027;-78
2022/03/08 03:10:14;;;;;;;0.00;0.00;;;;;;;;;;4985724;28;20041;-78
2022/03/08 03:12:43;;;;;;;0.30;0.30;;;;;;;;;;4991106;28;20361;-77
2022/03/08 03:15:10;;;;;;;0.00;0.00;;;;;;;;;;4978325;28;20101;-77
2022/03/08 03:17:36;;;;;;;0.00;0.00;;;;;;;;;;4978098;28;20019;-77
2022/03/08 03:20:03;;;;;;;0.00;0.00;;;;;;;;;;4978251;28;20029;-77
2022/03/08 03:22:28;;;;;;;0.00;0.00;;;;;;;;;;4981498;28;20061;-77
2022/03/08 03:24:59;;;;;;;0.20;0.20;;;;;;;;;;4978337;28;20090;-81
2022/03/08 03:27:24;;;;;;;0.43;0.43;;;;;;;;;;4984790;28;20098;-80
2022/03/08 03:29:49;;;;;;;1.23;1.00;;;;;;;;;;4988172;28;20449;-80
2022/03/08 03:32:14;;;;;;;0.10;0.10;;;;;;;;;;4989521;28;20108;-79
2022/03/08 03:34:40;;;;;;;0.10;0.10;;;;;;;;;;4977680;28;20114;-81
2022/03/08 03:37:05;;;;;;;0.60;0.60;;;;;;;;;;4978256;28;20022;-81
2022/03/08 03:39:31;;;;;;;0.38;0.25;;;;;;;;;;4984580;28;20110;-80
2022/03/08 03:41:56;;;;;;;0.35;0.35;;;;;;;;;;4994317;28;20442;-79
2022/03/08 03:44:21;;;;;;;1.40;1.30;;;;;;;;;;4983982;28;20027;-81
2022/03/08 03:46:47;;;;;;;0.13;0.13;;;;;;;;;;4990076;28;20027;-81
2022/03/08 03:49:14;;;;;;;0.63;0.32;;;;;;;;;;4996379;28;20084;-81
2022/03/08 03:51:40;;;;;;;0.63;0.52;;;;;;;;;;4980041;28;20040;-80
2022/03/08 03:54:06;;;;;;;1.17;0.68;;;;;;;;;;4990100;28;20097;-81
2022/03/08 03:56:31;;;;;;;0.47;0.47;;;;;;;;;;4977163;28;20403;-81
2022/03/08 03:58:56;;;;;;;1.00;0.65;;;;;;;;;;4976723;28;20567;-81
2022/03/08 04:01:22;;;;;;;0.00;0.00;;;;;;;;;;4983680;28;20041;-79
2022/03/08 04:03:47;;;;;;;0.20;0.20;;;;;;;;;;4977334;28;20331;-81
2022/03/08 04:06:15;;;;;;;0.00;0.00;;;;;;;;;;4981564;28;20092;-81
2022/03/08 04:08:40;;;;;;;0.10;0.10;;;;;;;;;;4995896;28;20041;-81
2022/03/08 04:11:05;;;;;;;0.35;0.35;;;;;;;;;;4990683;28;20023;-81
2022/03/08 04:13:31;;;;;;;1.42;0.93;;;;;;;;;;4982945;28;20036;-80
2022/03/08 04:15:56;;;;;;;0.17;0.17;;;;;;;;;;4995758;28;20050;-81
2022/03/08 04:18:21;;;;;;;0.20;0.20;;;;;;;;;;4995271;28;20041;-78
2022/03/08 04:20:47;;;;;;;2.75;1.40;;;;;;;;;;4982270;28;20019;-82
2022/03/08 04:23:15;;;;;;;0.55;0.55;;;;;;;;;;4976875;28;20450;-82
2022/03/08 04:25:40;;;;;;;0.57;0.57;;;;;;;;;;4977164;28;20469;-82
2022/03/08 04:28:06;;;;;;;0.57;0.57;;;;;;;;;;4976098;28;20042;-79
2022/03/08 04:30:31;;;;;;;0.75;0.75;;;;;;;;;;4979625;28;20030;-79
2022/03/08 04:32:57;;;;;;;0.10;0.10;;;;;;;;;;4979505;28;20042;-82
2022/03/08 04:35:22;;;;;;;0.17;0.17;;;;;;;;;;4986152;28;20030;-82
2022/03/08 04:37:48;;;;;;;0.65;0.65;;;;;;;;;;4980146;28;20540;-81
2022/03/08 04:40:14;;;;;;;0.20;0.20;;;;;;;;;;4977162;28;20031;-80
2022/03/08 04:42:40;;;;;;;0.20;0.20;;;;;;;;;;4990305;28;20064;-81
2022/03/08 04:45:07;;;;;;;0.47;0.47;;;;;;;;;;4975123;28;20030;-81
2022/03/08 04:47:35;;;;;;;0.50;0.50;;;;;;;;;;4975939;28;20183;-78
2022/03/08 04:50:01;;;;;;;0.15;0.15;;;;;;;;;;4976385;28;20050;-79
2022/03/08 04:52:26;;;;;;;0.50;0.50;;;;;;;;;;4988438;28;20377;-81
2022/03/08 04:54:54;;;;;;;0.30;0.30;;;;;;;;;;4995135;28;20538;-81
2022/03/08 04:57:19;;;;;;;0.25;0.25;;;;;;;;;;4995045;28;20027;-80
2022/03/08 04:59:44;;;;;;;0.10;0.10;;;;;;;;;;4994893;28;20117;-80
2022/03/08 05:02:12;;;;;;;1.77;0.40;;;;;;;;;;4989613;28;20141;-81
2022/03/08 05:04:37;;;;;;;0.47;0.47;;;;;;;;;;4982645;28;20030;-81
2022/03/08 05:07:05;;;;;;;0.40;0.40;;;;;;;;;;4981976;28;20023;-80
2022/03/08 05:09:30;;;;;;;0.70;0.70;;;;;;;;;;4981512;28;20068;-80
2022/03/08 05:11:56;;;;;;;0.25;0.25;;;;;;;;;;4976200;28;20154;-81
2022/03/08 05:14:21;;;;;;;1.13;1.02;;;;;;;;;;4978651;28;20026;-81
2022/03/08 05:16:46;;;;;;;0.13;0.13;;;;;;;;;;4976188;28;20058;-81
2022/03/08 05:19:12;;;;;;;0.55;0.55;;;;;;;;;;4976176;28;20086;-81
2022/03/08 05:21:37;;;;;;;0.10;0.10;;;;;;;;;;4980462;28;20029;-78
2022/03/08 05:24:03;;;;;;;1.08;1.00;;;;;;;;;;4994527;28;20030;-81
2022/03/08 05:26:30;;;;;;;0.40;0.40;;;;;;;;;;4983877;28;20171;-80
2022/03/08 05:28:56;;;;;;;0.17;0.17;;;;;;;;;;4975662;28;20418;-80
2022/03/08 05:31:21;;;;;;;0.05;0.05;;;;;;;;;;4976188;28;20023;-81
2022/03/08 05:33:46;;;;;;;0.90;0.90;;;;;;;;;;4981463;28;20030;-81
2022/03/08 05:36:11;;;;;;;0.20;0.20;;;;;;;;;;4975857;28;20035;-80
2022/03/08 05:38:39;;;;;;;0.00;0.00;;;;;;;;;;4976838;28;20030;-81
2022/03/08 05:41:04;;;;;;;0.15;0.15;;;;;;;;;;4988944;28;20041;-81
2022/03/08 05:43:30;;;;;;;0.17;0.15;;;;;;;;;;4990533;28;20030;-81
2022/03/08 05:45:57;;;;;;;3.22;1.38;;;;;;;;;;4988107;28;20105;-82
2022/03/08 05:48:25;;;;;;;0.28;0.28;;;;;;;;;;4994193;28;20022;-80
2022/03/08 05:50:50;;;;;;;0.00;0.00;;;;;;;;;;4978588;28;20117;-81
2022/03/08 05:53:16;;;;;;;1.80;1.05;;;;;;;;;;4979808;28;20525;-81
2022/03/08 05:55:42;;;;;;;1.00;0.68;;;;;;;;;;4993989;28;20553;-81
2022/03/08 05:58:09;;;;;;;0.63;0.63;;;;;;;;;;4994044;28;20030;-80
2022/03/08 06:00:35;;;;;;;0.17;0.17;;;;;;;;;;4992765;28;20030;-81
2022/03/08 06:03:00;;;;;;;0.20;0.20;;;;;;;;;;4991390;28;20044;-81
2022/03/08 06:05:25;;;;;;;0.05;0.05;;;;;;;;;;4990117;28;20075;-81
2022/03/08 06:07:51;;;;;;;0.00;0.00;;;;;;;;;;4976651;28;20460;-81
2022/03/08 06:10:16;;;;;;;0.30;0.30;;;;;;;;;;4993941;28;20027;-81
2022/03/08 06:12:41;;;;;;;0.08;0.08;;;;;;;;;;4986838;28;20034;-81
2022/03/08 06:15:08;;;;;;;0.10;0.10;;;;;;;;;;4980236;28;20143;-81
2022/03/08 06:17:35;;;;;;;0.25;0.25;;;;;;;;;;4975662;28;20038;-82
2022/03/08 06:20:01;;;;;;;0.10;0.10;;;;;;;;;;4988488;28;20454;-80
2022/03/08 06:22:26;;;;;;;0.77;0.77;;;;;;;;;;4980222;28;20023;-79
2022/03/08 06:24:56;;;;;;;0.00;0.00;;;;;;;;;;4975353;28;20429;-81
2022/03/08 06:27:22;;;;;;;0.20;0.20;;;;;;;;;;4994015;28;20562;-81
2022/03/08 06:29:51;;;;;;;0.28;0.28;;;;;;;;;;4982192;28;20073;-78
2022/03/08 06:32:17;;;;;;;0.10;0.10;;;;;;;;;;4985898;28;20331;-81
2022/03/08 06:34:45;;;;;;;0.00;0.00;;;;;;;;;;4979234;28;20038;-79
2022/03/08 06:37:12;;;;;;;0.43;0.43;;;;;;;;;;4974975;28;20462;-81
2022/03/08 06:39:41;;;;;;;0.22;0.22;;;;;;;;;;4975061;28;20031;-80
2022/03/08 06:42:07;;;;;;;0.00;0.00;;;;;;;;;;4988730;28;20045;-82
2022/03/08 06:44:32;;;;;;;0.20;0.20;;;;;;;;;;5000393;28;20022;-80
2022/03/08 06:46:58;;;;;;;0.20;0.20;;;;;;;;;;4985143;28;20049;-80
2022/03/08 06:49:32;;;;;;;0.17;0.17;;;;;;;;;;4997527;28;20054;-81
2022/03/08 06:51:58;;;;;;;0.65;0.45;;;;;;;;;;4979966;28;20118;-80
2022/03/08 06:54:23;;;;;;;0.57;0.57;;;;;;;;;;4984917;28;20115;-82
2022/03/08 06:56:48;;;;;;;0.55;0.55;;;;;;;;;;4980855;28;20026;-80
2022/03/08 06:59:13;;;;;;;0.30;0.30;;;;;;;;;;4978397;28;20030;-80
2022/03/08 07:01:39;;;;;;;0.30;0.30;;;;;;;;;;4978499;28;20034;-80
2022/03/08 07:04:09;;;;;;;0.00;0.00;;;;;;;;;;4982917;28;20031;-80
2022/03/08 07:06:34;;;;;;;0.10;0.10;;;;;;;;;;5005000;28;20030;-77
2022/03/08 07:09:00;;;;;;;0.00;0.00;;;;;;;;;;4985483;28;20027;-81
2022/03/08 07:11:25;;;;;;;0.75;0.75;;;;;;;;;;4978373;28;20037;-80
2022/03/08 07:13:53;;;;;;;0.00;0.00;;;;;;;;;;4982952;28;20032;-81
2022/03/08 07:16:20;;;;;;;0.40;0.40;;;;;;;;;;4983219;28;20026;-81
2022/03/08 07:18:46;;;;;;;0.52;0.52;;;;;;;;;;4983334;28;20422;-80
2022/03/08 07:21:11;;;;;;;1.05;0.75;;;;;;;;;;4996792;28;20032;-79
2022/03/08 07:23:36;;;;;;;0.65;0.20;;;;;;;;;;4996678;28;20060;-80
2022/03/08 07:26:11;;;;;;;0.75;0.75;;;;;;;;;;4996356;28;20033;-79
2022/03/08 07:28:37;;;;;;;0.00;0.00;;;;;;;;;;4993028;28;20026;-79
2022/03/08 07:31:02;;;;;;;0.55;0.55;;;;;;;;;;4994414;28;20053;-79
2022/03/08 07:33:28;;;;;;;0.43;0.43;;;;;;;;;;4977419;28;20034;-81
2022/03/08 07:35:53;;;;;;;1.55;1.38;;;;;;;;;;4995587;28;20421;-81
2022/03/08 07:38:21;;;;;;;1.15;1.05;;;;;;;;;;4979359;28;20030;-81
2022/03/08 07:40:49;;;;;;;0.65;0.38;;;;;;;;;;4986140;28;20046;-81
2022/03/08 07:43:14;;;;;;;1.05;1.00;;;;;;;;;;4996289;28;20034;-78
2022/03/08 07:45:39;;;;;;;1.08;0.90;;;;;;;;;;4986434;28;20326;-81
2022/03/08 07:48:05;;;;;;;0.10;0.10;;;;;;;;;;4988535;28;20413;-81
2022/03/08 07:50:32;;;;;;;0.30;0.30;;;;;;;;;;4983038;28;20034;-81
2022/03/08 07:52:59;;;;;;;0.80;0.77;;;;;;;;;;4987073;28;20030;-80
2022/03/08 07:55:26;;;;;;;0.15;0.15;;;;;;;;;;4979532;28;20050;-82
2022/03/08 07:57:51;;;;;;;0.20;0.20;;;;;;;;;;4999502;28;20105;-79
2022/03/08 08:00:19;;;;;;;0.40;0.40;;;;;;;;;;4995326;28;20165;-82
2022/03/08 08:02:45;;;;;;;0.03;0.03;;;;;;;;;;4984306;28;20026;-81
2022/03/08 08:05:10;;;;;;;1.85;1.25;;;;;;;;;;4994439;28;20088;-80
2022/03/08 08:07:38;;;;;;;0.20;0.20;;;;;;;;;;4983457;28;20465;-81
2022/03/08 08:10:03;;;;;;;0.30;0.30;;;;;;;;;;4984655;28;20034;-81
2022/03/08 08:12:31;;;;;;;0.20;0.20;;;;;;;;;;4986836;28;20026;-80
2022/03/08 08:15:01;;;;;;;0.82;0.80;;;;;;;;;;4981734;28;20042;-81
2022/03/08 08:17:27;;;;;;;1.30;1.25;;;;;;;;;;4991842;28;20015;-81
2022/03/08 08:19:52;;;;;;;0.57;0.40;;;;;;;;;;4997087;28;20019;-82
2022/03/08 08:22:17;;;;;;;0.40;0.40;;;;;;;;;;4995729;28;20417;-80
2022/03/08 08:24:48;;;;;;;0.70;0.70;;;;;;;;;;5001560;28;20025;-81
2022/03/08 08:27:13;;;;;;;0.60;0.60;;;;;;;;;;5003804;28;20026;-83
2022/03/08 08:29:38;;;;;;;0.50;0.50;;;;;;;;;;4995604;28;20033;-80
2022/03/08 08:32:04;;;;;;;0.47;0.47;;;;;;;;;;5002795;28;20030;-79
2022/03/08 08:34:32;;;;;;;3.05;1.45;;;;;;;;;;5000360;28;20405;-80
2022/03/08 08:36:58;;;;;;;0.85;0.77;;;;;;;;;;4982989;28;20362;-77
2022/03/08 08:40:00;;;;;;;1.25;0.88;;;;;;;;;;4983656;28;20040;-81
2022/03/08 08:45:51;;;;;;;0.88;0.88;;;;;;;;;;4988035;28;20106;-79
2022/03/08 08:48:17;;;;;;;1.15;0.68;;;;;;;;;;4989400;28;20124;-80
2022/03/08 08:50:48;;;;;;;10.13;1.90;;;;;;;;;;4983197;28;20034;-81
2022/03/08 08:53:18;;;;;;;0.47;0.47;;;;;;;;;;4993553;28;20419;-80
2022/03/08 08:55:43;;;;;;;0.45;0.45;;;;;;;;;;4988123;28;20033;-80
2022/03/08 08:58:09;;;;;;;0.70;0.70;;;;;;;;;;4987506;28;20022;-81
2022/03/08 09:00:34;;;;;;;1.23;1.13;;;;;;;;;;4990737;28;20045;-81
2022/03/08 09:03:01;;;;;;;0.35;0.35;;;;;;;;;;5002714;28;20335;-82
2022/03/08 09:05:27;;;;;;;2.08;1.40;;;;;;;;;;4989190;28;20036;-81
2022/03/08 09:07:52;;;;;;;0.30;0.30;;;;;;;;;;4990255;28;20030;-82
2022/03/08 09:10:22;;;;;;;1.40;1.30;;;;;;;;;;4989785;28;20037;-81
2022/03/08 09:12:50;;;;;;;0.50;0.50;;;;;;;;;;4982495;28;20022;-81
2022/03/08 09:15:16;;;;;;;0.70;0.70;;;;;;;;;;4986523;28;20034;-79
2022/03/08 09:17:44;;;;;;;0.98;0.90;;;;;;;;;;4999833;28;20025;-81
2022/03/08 09:20:10;;;;;;;0.73;0.52;;;;;;;;;;4985041;28;20035;-79
2022/03/08 09:22:38;;;;;;;2.83;1.23;;;;;;;;;;5003745;28;20022;-79
2022/03/08 09:25:06;;;;;;;0.70;0.57;;;;;;;;;;4992165;28;20030;-81
2022/03/08 09:27:34;;;;;;;0.30;0.30;;;;;;;;;;4992422;28;20090;-79
2022/03/08 09:30:02;;;;;;;0.60;0.60;;;;;;;;;;4991646;28;20101;-82
2022/03/08 09:32:28;;;;;;;0.20;0.20;;;;;;;;;;4991337;28;20030;-81
2022/03/08 09:34:55;;;;;;;6.60;0.93;;;;;;;;;;4978611;28;20331;-80
2022/03/08 09:37:21;;;;;;;0.85;0.85;;;;;;;;;;4992264;28;20477;-81
2022/03/08 09:39:46;;;;;;;0.98;0.93;;;;;;;;;;4980344;28;20117;-81
2022/03/08 09:42:11;;;;;;;0.55;0.47;;;;;;;;;;4981777;28;20041;-82
2022/03/08 09:44:37;;;;;;;0.70;0.57;;;;;;;;;;4985863;28;20056;-81
2022/03/08 09:47:03;;;;;;;0.73;0.73;;;;;;;;;;4977810;28;20023;-80
2022/03/08 09:49:28;;;;;;;0.40;0.40;;;;;;;;;;4981132;28;20030;-79
2022/03/08 09:51:56;;;;;;;0.40;0.40;;;;;;;;;;4986439;28;20022;-79
2022/03/08 09:54:24;;;;;;;0.57;0.57;;;;;;;;;;4997950;28;20597;-78
2022/03/08 09:56:49;;;;;;;0.75;0.60;;;;;;;;;;4986327;28;20522;-81
2022/03/08 09:59:19;;;;;;;1.35;1.25;;;;;;;;;;4992557;28;20041;-80
2022/03/08 10:01:46;;;;;;;0.50;0.50;;;;;;;;;;4991981;28;20057;-84
2022/03/08 10:04:16;;;;;;;1.95;0.95;;;;;;;;;;5004472;28;20382;-84
2022/03/08 10:07:01;;;;;;;2.78;1.88;;;;;;;;;;4988979;28;20030;-86
2022/03/08 10:09:26;;;;;;;0.43;0.43;;;;;;;;;;5000422;28;20038;-86
2022/03/08 10:11:55;;;;;;;2.95;1.70;;;;;;;;;;4990744;28;20041;-88
2022/03/08 10:14:41;;;;;;;0.68;0.65;;;;;;;;;;4989571;28;20457;-85
2022/03/08 10:17:09;;;;;;;0.32;0.32;;;;;;;;;;5001110;28;20417;-85
2022/03/08 10:19:48;;;;;;;0.20;0.20;;;;;;;;;;4996413;28;20030;-83
2022/03/08 10:22:35;;;;;;;1.65;1.30;;;;;;;;;;4997645;28;20052;-79
2022/03/08 10:28:17;;;;;;;0.40;0.40;;;;;;;;;;4953164;28;20054;-76
2022/03/08 10:30:43;;;;;;;0.30;0.30;;;;;;;;;;4987946;28;20097;-76
2022/03/08 10:33:09;;;;;;;0.35;0.35;;;;;;;;;;5002791;28;20035;-78
2022/03/08 10:35:44;;;;;;;1.25;0.90;;;;;;;;;;4988638;28;20049;-81
2022/03/08 10:38:14;;;;;;;0.30;0.30;;;;;;;;;;4996461;28;20403;-78
2022/03/08 10:40:41;;;;;;;1.17;0.98;;;;;;;;;;4990258;28;20042;-77
2022/03/08 10:43:13;;;;;;;0.63;0.63;;;;;;;;;;4981482;28;20045;-78
2022/03/08 10:45:49;;;;;;;0.50;0.50;;;;;;;;;;4986897;28;20026;-77
2022/03/08 10:48:18;;;;;;;0.40;0.25;;;;;;;;;;4985409;28;20422;-76
2022/03/08 10:50:44;;;;;;;0.32;0.32;;;;;;;;;;4993054;28;20030;-76
2022/03/08 10:53:28;;;;;;;0.70;0.70;;;;;;;;;;4997379;28;20026;-76
2022/03/08 10:55:55;;;;;;;1.58;1.15;;;;;;;;;;4991408;28;20057;-76
2022/03/08 11:01:10;;;;;;;0.52;0.52;;;;;;;;;;4967721;28;20050;-78
2022/03/08 11:03:38;;;;;;;0.32;0.32;;;;;;;;;;4986301;28;20026;-78
2022/03/08 11:06:06;;;;;;;0.28;0.28;;;;;;;;;;4999318;28;20052;-78
2022/03/08 11:08:32;;;;;;;0.50;0.50;;;;;;;;;;4995443;28;20037;-78
2022/03/08 11:10:57;;;;;;;0.73;0.73;;;;;;;;;;5000191;28;20022;-78
2022/03/08 11:13:25;;;;;;;0.68;0.68;;;;;;;;;;4992039;28;20030;-76
2022/03/08 11:15:53;;;;;;;1.17;1.02;;;;;;;;;;4997121;28;20030;-75
2022/03/08 11:18:20;;;;;;;1.15;1.05;;;;;;;;;;4991181;28;20366;-76
2022/03/08 11:20:47;;;;;;;1.20;1.02;;;;;;;;;;4998276;28;20033;-76
2022/03/08 11:23:12;;;;;;;1.75;1.05;;;;;;;;;;4995043;28;20034;-75
2022/03/08 11:25:44;;;;;;;2.38;1.02;;;;;;;;;;4995616;28;20373;-75
2022/03/08 11:28:09;;;;;;;0.82;0.82;;;;;;;;;;4992173;28;20059;-75
2022/03/08 11:30:46;;;;;;;1.70;1.33;;;;;;;;;;4990625;28;20462;-77
2022/03/08 11:33:11;;;;;;;2.20;1.48;;;;;;;;;;4991722;28;20022;-75
2022/03/08 11:35:42;;;;;;;1.65;0.75;;;;;;;;;;4993970;28;20535;-75
2022/03/08 11:38:12;;;;;;;0.47;0.45;;;;;;;;;;4983775;28;20465;-76
2022/03/08 11:40:38;;;;;;;7.22;0.65;;;;;;;;;;4988498;28;20357;-75
2022/03/08 11:43:07;;;;;;;1.25;0.57;;;;;;;;;;4994762;28;20254;-75
2022/03/08 11:45:33;;;;;;;0.63;0.60;;;;;;;;;;4987952;28;20030;-78
2022/03/08 11:48:07;;;;;;;1.45;1.00;;;;;;;;;;4983641;28;20049;-77
2022/03/08 11:50:44;;;;;;;0.93;0.73;;;;;;;;;;4993615;28;20037;-77
2022/03/08 11:53:17;;;;;;;0.98;0.70;;;;;;;;;;4996050;28;20037;-77
2022/03/08 11:55:42;;;;;;;0.52;0.52;;;;;;;;;;5000146;28;20481;-75
2022/03/08 11:58:43;;;;;;;1.05;0.80;;;;;;;;;;4988572;28;20027;-77
2022/03/08 12:01:24;;;;;;;0.50;0.40;;;;;;;;;;4994381;28;20073;-77
2022/03/08 12:03:57;;;;;;;0.70;0.70;;;;;;;;;;4978035;28;20041;-77
2022/03/08 12:06:38;;;;;;;0.65;0.65;;;;;;;;;;4987317;28;20026;-76
2022/03/08 12:09:10;;;;;;;0.20;0.20;;;;;;;;;;4988215;28;20022;-77
2022/03/08 12:11:38;;;;;;;0.43;0.30;;;;;;;;;;4989252;28;20050;-77
2022/03/08 12:14:08;;;;;;;0.63;0.63;;;;;;;;;;4981834;28;20031;-78
2022/03/08 12:16:34;;;;;;;0.50;0.47;;;;;;;;;;4984017;28;20035;-77
2022/03/08 12:19:01;;;;;;;1.35;1.10;;;;;;;;;;4988134;28;20033;-78
2022/03/08 12:21:27;;;;;;;1.42;0.35;;;;;;;;;;4986825;28;20045;-78
2022/03/08 12:24:10;;;;;;;0.50;0.38;;;;;;;;;;4986896;28;20488;-76
2022/03/08 12:26:50;;;;;;;0.20;0.20;;;;;;;;;;4989989;28;20030;-78
2022/03/08 12:29:36;;;;;;;0.80;0.47;;;;;;;;;;4990834;28;20042;-76
2022/03/08 12:32:01;;;;;;;0.28;0.20;;;;;;;;;;4992759;28;20029;-76
2022/03/08 12:34:35;;;;;;;0.28;0.28;;;;;;;;;;4983048;28;20350;-78
2022/03/08 12:37:18;;;;;;;0.55;0.50;;;;;;;;;;4980150;28;20039;-78
2022/03/08 12:39:57;;;;;;;0.63;0.63;;;;;;;;;;4991710;28;20029;-76
2022/03/08 12:42:31;;;;;;;0.43;0.43;;;;;;;;;;4985410;28;20393;-78
2022/03/08 12:45:13;;;;;;;1.00;0.50;;;;;;;;;;4997670;28;20022;-77
2022/03/08 12:47:53;;;;;;;0.73;0.68;;;;;;;;;;4984739;28;20026;-79
2022/03/08 12:50:23;;;;;;;1.85;1.23;;;;;;;;;;4982553;28;20026;-78
2022/03/08 12:52:58;;;;;;;1.13;0.65;;;;;;;;;;4988951;28;20019;-77
2022/03/08 12:55:29;;;;;;;0.73;0.52;;;;;;;;;;4976351;28;20068;-78
2022/03/08 12:57:57;;;;;;;2.10;1.13;;;;;;;;;;4981576;28;20428;-78
2022/03/08 13:00:30;;;;;;;0.75;0.57;;;;;;;;;;4997578;28;20026;-77
2022/03/08 13:02:56;;;;;;;0.63;0.52;;;;;;;;;;5003625;28;20053;-76
2022/03/08 13:05:27;;;;;;;0.63;0.63;;;;;;;;;;4981465;28;20033;-77
2022/03/08 13:07:55;;;;;;;0.20;0.20;;;;;;;;;;4982047;28;20027;-77
2022/03/08 13:10:22;;;;;;;0.20;0.20;;;;;;;;;;4977318;28;20450;-77
2022/03/08 13:12:51;;;;;;;0.75;0.45;;;;;;;;;;4982306;28;20026;-77
2022/03/08 13:15:24;;;;;;;0.25;0.15;;;;;;;;;;4987943;28;20454;-76
2022/03/08 13:17:53;;;;;;;1.80;0.63;;;;;;;;;;4975100;28;20629;-77
2022/03/08 13:20:32;;;;;;;0.50;0.50;;;;;;;;;;4982809;28;20022;-78
2022/03/08 13:23:13;;;;;;;1.75;0.70;;;;;;;;;;4994576;28;20488;-77
2022/03/08 13:25:43;;;;;;;0.38;0.30;;;;;;;;;;4985056;28;20031;-78
2022/03/08 13:28:17;;;;;;;0.93;0.93;;;;;;;;;;4975934;28;20101;-77
2022/03/08 13:30:45;;;;;;;0.55;0.52;;;;;;;;;;4982186;28;20022;-77
2022/03/08 13:33:17;;;;;;;0.30;0.28;;;;;;;;;;4977536;28;20534;-77
2022/03/08 13:35:44;;;;;;;;;;;;;;;;;;5009553;28;20445;-75
2022/03/08 13:38:15;;;;;;;0.10;0.10;;;;;;;;;;5004823;28;19913;-76
2022/03/08 13:40:47;;;;;;;0.28;0.28;;;;;;;;;;4982967;28;20038;-77
2022/03/08 13:43:14;;;;;;;0.52;0.52;;;;;;;;;;4989062;28;20329;-76
2022/03/08 13:45:40;;;;;;;0.38;0.38;;;;;;;;;;4993684;28;20034;-76
2022/03/08 13:48:11;;;;;;;0.45;0.45;;;;;;;;;;4992277;28;20042;-77
2022/03/08 13:50:36;;;;;;;1.20;1.10;;;;;;;;;;4989109;28;20462;-75
2022/03/08 13:53:07;;;;;;;0.20;0.17;;;;;;;;;;5007612;28;20026;-76
2022/03/08 13:55:33;;;;;;;0.40;0.30;;;;;;;;;;4992135;28;20030;-75
2022/03/08 13:58:01;;;;;;;0.30;0.30;;;;;;;;;;4989373;28;20026;-75
2022/03/08 14:00:38;;;;;;;0.35;0.35;;;;;;;;;;4991943;28;20030;-76
2022/03/08 14:03:10;;;;;;;0.00;0.00;;;;;;;;;;4990895;28;20045;-76
2022/03/08 14:05:48;;;;;;;0.25;0.25;;;;;;;;;;5008468;28;20357;-81
2022/03/08 14:08:24;;;;;;;0.68;0.68;;;;;;;;;;4988428;28;20071;-79
2022/03/08 14:10:54;;;;;;;0.47;0.47;;;;;;;;;;4991698;28;20410;-80
2022/03/08 14:13:21;;;;;;;0.13;0.13;;;;;;;;;;4988178;28;20443;-79
2022/03/08 14:16:17;;;;;;;0.32;0.32;;;;;;;;;;4990956;28;20635;-78
2022/03/08 14:19:01;;;;;;;1.55;0.47;;;;;;;;;;4977876;28;20034;-78
2022/03/08 14:21:32;;;;;;;0.05;0.05;;;;;;;;;;4974329;28;20496;-79
2022/03/08 14:24:21;;;;;;;1.08;0.85;;;;;;;;;;4984760;28;20476;-78
2022/03/08 14:27:05;;;;;;;0.10;0.10;;;;;;;;;;4985235;28;20616;-78
2022/03/08 14:29:33;;;;;;;6.22;0.90;;;;;;;;;;4988230;28;20031;-79
2022/03/08 14:31:59;;;;;;;0.10;0.10;;;;;;;;;;4990040;28;20026;-78
2022/03/08 14:34:28;;;;;;;0.15;0.15;;;;;;;;;;4990537;28;20041;-79
2022/03/08 14:36:53;;;;;;;0.00;0.00;;;;;;;;;;4989301;28;20101;-79
2022/03/08 14:39:27;;;;;;;0.32;0.32;;;;;;;;;;4986901;28;20169;-77
2022/03/08 14:42:07;;;;;;;0.20;0.20;;;;;;;;;;4988850;28;20022;-78
2022/03/08 14:44:48;;;;;;;1.60;0.82;;;;;;;;;;4991284;28;20110;-79
2022/03/08 14:47:29;;;;;;;0.30;0.30;;;;;;;;;;4986617;28;20104;-79
2022/03/08 14:50:00;;;;;;;0.10;0.10;;;;;;;;;;4989854;28;20018;-76
2022/03/08 14:52:30;;;;;;;0.30;0.30;;;;;;;;;;4990423;28;20040;-74
2022/03/08 14:55:00;;;;;;;0.28;0.28;;;;;;;;;;5001466;28;20068;-77
2022/03/08 14:57:26;;;;;;;1.02;0.75;;;;;;;;;;4987695;28;20018;-76
2022/03/08 14:59:57;;;;;;;0.28;0.28;;;;;;;;;;4979832;28;20411;-76